sensor_id;sensor_type;location;lat;lon;timestamp;P1;durP1;ratioP1;P2;durP2;ratioP2
16153;SDS011;8182;55.648;13.208;2022-09-29T00:01:07;2.60;;;1.60;;
16153;SDS011;8182;55.648;13.208;2022-09-29T00:03:36;1.77;;;1.67;;
16153;SDS011;8182;55.648;13.208;2022-09-29T00:06:08;1.67;;;1.57;;
16153;SDS011;8182;55.648;13.208;2022-09-29T00:08:38;1.97;;;1.60;;
16153;SDS011;8182;55.648;13.208;2022-09-29T00:11:06;1.80;;;1.70;;
16153;SDS011;8182;55.648;13.208;2022-09-29T00:13:33;2.43;;;2.10;;
16153;SDS011;8182;55.648;13.208;2022-09-29T00:16:01;2.10;;;1.90;;
16153;SDS011;8182;55.648;13.208;2022-09-29T00:18:29;3.30;;;2.00;;
16153;SDS011;8182;55.648;13.208;2022-09-29T00:21:00;2.90;;;2.03;;
16153;SDS011;8182;55.648;13.208;2022-09-29T00:23:29;2.30;;;2.00;;
16153;SDS011;8182;55.648;13.208;2022-09-29T00:25:58;3.70;;;2.00;;
16153;SDS011;8182;55.648;13.208;2022-09-29T00:28:26;3.30;;;2.10;;
16153;SDS011;8182;55.648;13.208;2022-09-29T00:30:54;3.10;;;1.90;;
16153;SDS011;8182;55.648;13.208;2022-09-29T00:33:22;2.27;;;2.00;;
16153;SDS011;8182;55.648;13.208;2022-09-29T00:35:56;3.60;;;2.00;;
16153;SDS011;8182;55.648;13.208;2022-09-29T00:38:27;2.07;;;1.80;;
16153;SDS011;8182;55.648;13.208;2022-09-29T00:40:54;2.70;;;1.57;;
16153;SDS011;8182;55.648;13.208;2022-09-29T00:43:22;2.53;;;1.30;;
16153;SDS011;8182;55.648;13.208;2022-09-29T00:45:52;4.00;;;1.30;;
16153;SDS011;8182;55.648;13.208;2022-09-29T00:48:22;1.67;;;1.00;;
16153;SDS011;8182;55.648;13.208;2022-09-29T00:50:57;2.17;;;0.93;;
16153;SDS011;8182;55.648;13.208;2022-09-29T00:53:26;3.00;;;1.10;;
16153;SDS011;8182;55.648;13.208;2022-09-29T00:55:55;1.70;;;0.93;;
16153;SDS011;8182;55.648;13.208;2022-09-29T00:58:26;1.40;;;1.00;;
16153;SDS011;8182;55.648;13.208;2022-09-29T01:00:56;1.20;;;1.10;;
16153;SDS011;8182;55.648;13.208;2022-09-29T01:03:24;1.23;;;1.00;;
16153;SDS011;8182;55.648;13.208;2022-09-29T01:05:56;1.83;;;1.10;;
16153;SDS011;8182;55.648;13.208;2022-09-29T01:08:27;1.43;;;1.20;;
16153;SDS011;8182;55.648;13.208;2022-09-29T01:11:01;1.20;;;1.10;;
16153;SDS011;8182;55.648;13.208;2022-09-29T01:13:29;1.30;;;1.20;;
16153;SDS011;8182;55.648;13.208;2022-09-29T01:15:58;1.73;;;1.47;;
16153;SDS011;8182;55.648;13.208;2022-09-29T01:18:25;1.77;;;1.30;;
16153;SDS011;8182;55.648;13.208;2022-09-29T01:20:55;1.67;;;1.43;;
16153;SDS011;8182;55.648;13.208;2022-09-29T01:23:45;2.73;;;1.50;;
16153;SDS011;8182;55.648;13.208;2022-09-29T01:26:38;1.60;;;1.50;;
16153;SDS011;8182;55.648;13.208;2022-09-29T01:29:30;2.00;;;1.70;;
16153;SDS011;8182;55.648;13.208;2022-09-29T01:32:20;3.27;;;1.63;;
16153;SDS011;8182;55.648;13.208;2022-09-29T01:34:57;2.50;;;1.57;;
16153;SDS011;8182;55.648;13.208;2022-09-29T01:37:35;1.70;;;1.50;;
16153;SDS011;8182;55.648;13.208;2022-09-29T01:40:10;1.77;;;1.67;;
16153;SDS011;8182;55.648;13.208;2022-09-29T01:42:44;4.17;;;1.43;;
16153;SDS011;8182;55.648;13.208;2022-09-29T01:45:20;2.00;;;1.50;;
16153;SDS011;8182;55.648;13.208;2022-09-29T01:47:54;2.07;;;1.60;;
16153;SDS011;8182;55.648;13.208;2022-09-29T01:50:26;2.00;;;1.50;;
16153;SDS011;8182;55.648;13.208;2022-09-29T01:52:59;2.90;;;1.70;;
16153;SDS011;8182;55.648;13.208;2022-09-29T01:55:30;1.97;;;1.20;;
16153;SDS011;8182;55.648;13.208;2022-09-29T01:58:01;1.57;;;1.30;;
16153;SDS011;8182;55.648;13.208;2022-09-29T02:00:34;2.57;;;1.50;;
16153;SDS011;8182;55.648;13.208;2022-09-29T02:03:10;2.83;;;1.53;;
16153;SDS011;8182;55.648;13.208;2022-09-29T02:05:43;4.03;;;1.47;;
16153;SDS011;8182;55.648;13.208;2022-09-29T02:08:14;1.40;;;1.17;;
16153;SDS011;8182;55.648;13.208;2022-09-29T02:10:45;2.60;;;1.33;;
16153;SDS011;8182;55.648;13.208;2022-09-29T02:13:17;1.40;;;1.30;;
16153;SDS011;8182;55.648;13.208;2022-09-29T02:15:47;2.13;;;1.40;;
16153;SDS011;8182;55.648;13.208;2022-09-29T02:18:21;2.90;;;1.27;;
16153;SDS011;8182;55.648;13.208;2022-09-29T02:20:49;1.60;;;1.20;;
16153;SDS011;8182;55.648;13.208;2022-09-29T02:23:16;1.23;;;1.07;;
16153;SDS011;8182;55.648;13.208;2022-09-29T02:25:44;1.70;;;1.23;;
16153;SDS011;8182;55.648;13.208;2022-09-29T02:28:13;2.97;;;1.23;;
16153;SDS011;8182;55.648;13.208;2022-09-29T02:30:43;3.00;;;1.27;;
16153;SDS011;8182;55.648;13.208;2022-09-29T02:33:17;2.00;;;1.17;;
16153;SDS011;8182;55.648;13.208;2022-09-29T02:35:58;1.83;;;1.20;;
16153;SDS011;8182;55.648;13.208;2022-09-29T02:38:38;2.60;;;1.40;;
16153;SDS011;8182;55.648;13.208;2022-09-29T02:41:15;1.20;;;1.10;;
16153;SDS011;8182;55.648;13.208;2022-09-29T02:44:00;2.50;;;1.37;;
16153;SDS011;8182;55.648;13.208;2022-09-29T02:46:40;1.30;;;1.20;;
16153;SDS011;8182;55.648;13.208;2022-09-29T02:49:23;1.50;;;1.10;;
16153;SDS011;8182;55.648;13.208;2022-09-29T02:52:09;1.83;;;1.13;;
16153;SDS011;8182;55.648;13.208;2022-09-29T02:54:48;2.00;;;1.10;;
16153;SDS011;8182;55.648;13.208;2022-09-29T02:57:25;1.90;;;1.20;;
16153;SDS011;8182;55.648;13.208;2022-09-29T03:00:00;1.77;;;1.23;;
16153;SDS011;8182;55.648;13.208;2022-09-29T03:02:35;1.50;;;1.20;;
16153;SDS011;8182;55.648;13.208;2022-09-29T03:05:05;1.57;;;1.20;;
16153;SDS011;8182;55.648;13.208;2022-09-29T03:07:35;1.93;;;1.00;;
16153;SDS011;8182;55.648;13.208;2022-09-29T03:10:03;1.30;;;1.00;;
16153;SDS011;8182;55.648;13.208;2022-09-29T03:12:32;1.10;;;1.00;;
16153;SDS011;8182;55.648;13.208;2022-09-29T03:14:59;1.20;;;1.10;;
16153;SDS011;8182;55.648;13.208;2022-09-29T03:17:26;2.23;;;1.07;;
16153;SDS011;8182;55.648;13.208;2022-09-29T03:19:53;2.10;;;1.00;;
16153;SDS011;8182;55.648;13.208;2022-09-29T03:22:23;1.47;;;0.90;;
16153;SDS011;8182;55.648;13.208;2022-09-29T03:24:50;1.47;;;0.97;;
16153;SDS011;8182;55.648;13.208;2022-09-29T03:27:17;1.60;;;1.20;;
16153;SDS011;8182;55.648;13.208;2022-09-29T03:29:44;1.43;;;0.93;;
16153;SDS011;8182;55.648;13.208;2022-09-29T03:32:11;2.23;;;1.30;;
16153;SDS011;8182;55.648;13.208;2022-09-29T03:34:38;1.40;;;1.10;;
16153;SDS011;8182;55.648;13.208;2022-09-29T03:37:05;2.37;;;1.00;;
16153;SDS011;8182;55.648;13.208;2022-09-29T03:39:34;2.10;;;1.30;;
16153;SDS011;8182;55.648;13.208;2022-09-29T03:42:02;2.10;;;1.00;;
16153;SDS011;8182;55.648;13.208;2022-09-29T03:44:30;2.23;;;0.90;;
16153;SDS011;8182;55.648;13.208;2022-09-29T03:46:57;2.90;;;0.90;;
16153;SDS011;8182;55.648;13.208;2022-09-29T03:49:24;1.13;;;1.00;;
16153;SDS011;8182;55.648;13.208;2022-09-29T03:51:52;1.17;;;1.07;;
16153;SDS011;8182;55.648;13.208;2022-09-29T03:54:19;1.20;;;1.03;;
16153;SDS011;8182;55.648;13.208;2022-09-29T03:56:47;1.53;;;1.10;;
16153;SDS011;8182;55.648;13.208;2022-09-29T03:59:15;3.33;;;1.10;;
16153;SDS011;8182;55.648;13.208;2022-09-29T04:01:41;1.27;;;1.13;;
16153;SDS011;8182;55.648;13.208;2022-09-29T04:04:08;1.87;;;1.30;;
16153;SDS011;8182;55.648;13.208;2022-09-29T04:06:36;2.17;;;1.50;;
16153;SDS011;8182;55.648;13.208;2022-09-29T04:09:03;2.83;;;1.27;;
16153;SDS011;8182;55.648;13.208;2022-09-29T04:11:30;2.47;;;1.20;;
16153;SDS011;8182;55.648;13.208;2022-09-29T04:13:59;1.20;;;1.10;;
16153;SDS011;8182;55.648;13.208;2022-09-29T04:16:26;2.43;;;1.20;;
16153;SDS011;8182;55.648;13.208;2022-09-29T04:18:53;3.43;;;1.37;;
16153;SDS011;8182;55.648;13.208;2022-09-29T04:21:21;1.97;;;1.33;;
16153;SDS011;8182;55.648;13.208;2022-09-29T04:23:47;2.00;;;1.40;;
16153;SDS011;8182;55.648;13.208;2022-09-29T04:26:15;2.10;;;1.50;;
16153;SDS011;8182;55.648;13.208;2022-09-29T04:28:44;1.77;;;1.30;;
16153;SDS011;8182;55.648;13.208;2022-09-29T04:31:13;1.73;;;1.33;;
16153;SDS011;8182;55.648;13.208;2022-09-29T04:33:40;1.53;;;1.40;;
16153;SDS011;8182;55.648;13.208;2022-09-29T04:36:07;1.50;;;1.30;;
16153;SDS011;8182;55.648;13.208;2022-09-29T04:38:34;2.83;;;1.60;;
16153;SDS011;8182;55.648;13.208;2022-09-29T04:41:02;1.70;;;1.50;;
16153;SDS011;8182;55.648;13.208;2022-09-29T04:43:29;1.73;;;1.40;;
16153;SDS011;8182;55.648;13.208;2022-09-29T04:46:03;3.63;;;1.50;;
16153;SDS011;8182;55.648;13.208;2022-09-29T04:48:33;1.97;;;1.63;;
16153;SDS011;8182;55.648;13.208;2022-09-29T04:51:00;2.33;;;1.50;;
16153;SDS011;8182;55.648;13.208;2022-09-29T04:53:28;1.77;;;1.37;;
16153;SDS011;8182;55.648;13.208;2022-09-29T04:55:55;1.53;;;1.43;;
16153;SDS011;8182;55.648;13.208;2022-09-29T04:58:22;2.17;;;1.50;;
16153;SDS011;8182;55.648;13.208;2022-09-29T05:00:49;2.30;;;1.47;;
16153;SDS011;8182;55.648;13.208;2022-09-29T05:03:17;3.17;;;1.50;;
16153;SDS011;8182;55.648;13.208;2022-09-29T05:05:46;2.07;;;1.40;;
16153;SDS011;8182;55.648;13.208;2022-09-29T05:08:13;1.90;;;1.30;;
16153;SDS011;8182;55.648;13.208;2022-09-29T05:10:40;2.90;;;1.57;;
16153;SDS011;8182;55.648;13.208;2022-09-29T05:13:07;1.57;;;1.33;;
16153;SDS011;8182;55.648;13.208;2022-09-29T05:15:34;3.20;;;1.30;;
16153;SDS011;8182;55.648;13.208;2022-09-29T05:18:02;1.40;;;1.30;;
16153;SDS011;8182;55.648;13.208;2022-09-29T05:20:29;2.03;;;1.50;;
16153;SDS011;8182;55.648;13.208;2022-09-29T05:22:58;1.70;;;1.43;;
16153;SDS011;8182;55.648;13.208;2022-09-29T05:25:25;3.63;;;1.60;;
16153;SDS011;8182;55.648;13.208;2022-09-29T05:27:53;2.43;;;1.60;;
16153;SDS011;8182;55.648;13.208;2022-09-29T05:30:20;1.70;;;1.60;;
16153;SDS011;8182;55.648;13.208;2022-09-29T05:32:47;3.27;;;1.60;;
16153;SDS011;8182;55.648;13.208;2022-09-29T05:35:14;2.50;;;1.53;;
16153;SDS011;8182;55.648;13.208;2022-09-29T05:37:42;1.87;;;1.40;;
16153;SDS011;8182;55.648;13.208;2022-09-29T05:40:10;1.60;;;1.50;;
16153;SDS011;8182;55.648;13.208;2022-09-29T05:42:37;2.90;;;1.73;;
16153;SDS011;8182;55.648;13.208;2022-09-29T05:45:05;2.87;;;1.60;;
16153;SDS011;8182;55.648;13.208;2022-09-29T05:47:36;3.97;;;2.80;;
16153;SDS011;8182;55.648;13.208;2022-09-29T05:50:07;4.80;;;2.53;;
16153;SDS011;8182;55.648;13.208;2022-09-29T05:52:35;2.80;;;2.37;;
16153;SDS011;8182;55.648;13.208;2022-09-29T05:55:02;2.93;;;1.80;;
16153;SDS011;8182;55.648;13.208;2022-09-29T05:57:35;2.10;;;1.73;;
16153;SDS011;8182;55.648;13.208;2022-09-29T06:00:02;3.23;;;1.70;;
16153;SDS011;8182;55.648;13.208;2022-09-29T06:02:30;2.63;;;1.40;;
16153;SDS011;8182;55.648;13.208;2022-09-29T06:04:58;1.40;;;1.30;;
16153;SDS011;8182;55.648;13.208;2022-09-29T06:07:25;1.50;;;1.17;;
16153;SDS011;8182;55.648;13.208;2022-09-29T06:09:52;1.53;;;1.37;;
16153;SDS011;8182;55.648;13.208;2022-09-29T06:12:19;2.50;;;1.10;;
16153;SDS011;8182;55.648;13.208;2022-09-29T06:14:48;1.33;;;1.00;;
16153;SDS011;8182;55.648;13.208;2022-09-29T06:17:15;4.10;;;1.30;;
16153;SDS011;8182;55.648;13.208;2022-09-29T06:19:42;1.70;;;0.83;;
16153;SDS011;8182;55.648;13.208;2022-09-29T06:22:09;1.67;;;0.80;;
16153;SDS011;8182;55.648;13.208;2022-09-29T06:24:37;1.23;;;1.10;;
16153;SDS011;8182;55.648;13.208;2022-09-29T06:27:04;2.00;;;0.80;;
16153;SDS011;8182;55.648;13.208;2022-09-29T06:29:31;3.03;;;0.90;;
16153;SDS011;8182;55.648;13.208;2022-09-29T06:31:59;1.67;;;0.77;;
16153;SDS011;8182;55.648;13.208;2022-09-29T06:34:27;0.60;;;0.60;;
16153;SDS011;8182;55.648;13.208;2022-09-29T06:36:54;1.60;;;0.90;;
16153;SDS011;8182;55.648;13.208;2022-09-29T06:39:53;1.40;;;0.77;;
16153;SDS011;8182;55.648;13.208;2022-09-29T06:42:20;1.30;;;0.80;;
16153;SDS011;8182;55.648;13.208;2022-09-29T06:44:48;0.70;;;0.70;;
16153;SDS011;8182;55.648;13.208;2022-09-29T06:47:16;1.07;;;0.80;;
16153;SDS011;8182;55.648;13.208;2022-09-29T06:49:43;1.07;;;0.90;;
16153;SDS011;8182;55.648;13.208;2022-09-29T06:52:10;1.00;;;0.90;;
16153;SDS011;8182;55.648;13.208;2022-09-29T06:54:37;1.17;;;0.93;;
16153;SDS011;8182;55.648;13.208;2022-09-29T06:57:04;1.60;;;1.00;;
16153;SDS011;8182;55.648;13.208;2022-09-29T06:59:32;1.97;;;0.90;;
16153;SDS011;8182;55.648;13.208;2022-09-29T07:01:59;0.77;;;0.70;;
16153;SDS011;8182;55.648;13.208;2022-09-29T07:04:28;1.10;;;0.80;;
16153;SDS011;8182;55.648;13.208;2022-09-29T07:06:55;3.23;;;1.00;;
16153;SDS011;8182;55.648;13.208;2022-09-29T07:09:22;1.57;;;0.80;;
16153;SDS011;8182;55.648;13.208;2022-09-29T07:11:50;3.33;;;0.80;;
16153;SDS011;8182;55.648;13.208;2022-09-29T07:14:18;2.73;;;1.10;;
16153;SDS011;8182;55.648;13.208;2022-09-29T07:16:46;1.10;;;1.00;;
16153;SDS011;8182;55.648;13.208;2022-09-29T07:19:14;1.47;;;1.00;;
16153;SDS011;8182;55.648;13.208;2022-09-29T07:21:43;6.47;;;5.27;;
16153;SDS011;8182;55.648;13.208;2022-09-29T07:24:11;2.20;;;1.53;;
16153;SDS011;8182;55.648;13.208;2022-09-29T07:26:38;1.03;;;0.80;;
16153;SDS011;8182;55.648;13.208;2022-09-29T07:29:05;1.47;;;0.90;;
16153;SDS011;8182;55.648;13.208;2022-09-29T07:31:33;1.70;;;0.83;;
16153;SDS011;8182;55.648;13.208;2022-09-29T07:34:04;4.10;;;0.90;;
16153;SDS011;8182;55.648;13.208;2022-09-29T07:36:31;1.77;;;0.90;;
16153;SDS011;8182;55.648;13.208;2022-09-29T07:39:00;2.43;;;1.07;;
16153;SDS011;8182;55.648;13.208;2022-09-29T07:41:27;1.80;;;1.10;;
16153;SDS011;8182;55.648;13.208;2022-09-29T07:43:54;1.20;;;0.90;;
16153;SDS011;8182;55.648;13.208;2022-09-29T07:46:21;1.37;;;1.07;;
16153;SDS011;8182;55.648;13.208;2022-09-29T07:48:49;1.23;;;1.03;;
16153;SDS011;8182;55.648;13.208;2022-09-29T07:51:16;1.53;;;1.00;;
16153;SDS011;8182;55.648;13.208;2022-09-29T07:53:45;1.90;;;1.20;;
16153;SDS011;8182;55.648;13.208;2022-09-29T07:56:15;1.27;;;0.80;;
16153;SDS011;8182;55.648;13.208;2022-09-29T07:58:43;0.97;;;0.70;;
16153;SDS011;8182;55.648;13.208;2022-09-29T08:01:11;0.80;;;0.60;;
16153;SDS011;8182;55.648;13.208;2022-09-29T08:03:40;0.67;;;0.53;;
16153;SDS011;8182;55.648;13.208;2022-09-29T08:06:10;0.70;;;0.70;;
16153;SDS011;8182;55.648;13.208;2022-09-29T08:08:39;0.60;;;0.60;;
16153;SDS011;8182;55.648;13.208;2022-09-29T08:11:07;1.03;;;0.80;;
16153;SDS011;8182;55.648;13.208;2022-09-29T08:13:37;1.47;;;0.50;;
16153;SDS011;8182;55.648;13.208;2022-09-29T08:16:06;1.37;;;0.70;;
16153;SDS011;8182;55.648;13.208;2022-09-29T08:18:34;1.13;;;0.67;;
16153;SDS011;8182;55.648;13.208;2022-09-29T08:21:02;0.80;;;0.80;;
16153;SDS011;8182;55.648;13.208;2022-09-29T08:23:33;1.40;;;0.80;;
16153;SDS011;8182;55.648;13.208;2022-09-29T08:26:01;0.80;;;0.70;;
16153;SDS011;8182;55.648;13.208;2022-09-29T08:28:29;0.93;;;0.80;;
16153;SDS011;8182;55.648;13.208;2022-09-29T08:31:01;0.77;;;0.77;;
16153;SDS011;8182;55.648;13.208;2022-09-29T08:33:30;1.70;;;0.90;;
16153;SDS011;8182;55.648;13.208;2022-09-29T08:35:57;1.70;;;0.80;;
16153;SDS011;8182;55.648;13.208;2022-09-29T08:38:25;1.80;;;0.87;;
16153;SDS011;8182;55.648;13.208;2022-09-29T08:40:54;1.90;;;1.57;;
16153;SDS011;8182;55.648;13.208;2022-09-29T08:43:23;0.80;;;0.70;;
16153;SDS011;8182;55.648;13.208;2022-09-29T08:45:55;0.70;;;0.67;;
16153;SDS011;8182;55.648;13.208;2022-09-29T08:48:30;1.93;;;0.90;;
16153;SDS011;8182;55.648;13.208;2022-09-29T08:51:02;1.20;;;0.70;;
16153;SDS011;8182;55.648;13.208;2022-09-29T08:53:34;1.07;;;0.70;;
16153;SDS011;8182;55.648;13.208;2022-09-29T08:56:07;0.70;;;0.70;;
16153;SDS011;8182;55.648;13.208;2022-09-29T08:58:39;2.90;;;0.70;;
16153;SDS011;8182;55.648;13.208;2022-09-29T09:01:11;0.60;;;0.60;;
16153;SDS011;8182;55.648;13.208;2022-09-29T09:03:57;1.37;;;0.80;;
16153;SDS011;8182;55.648;13.208;2022-09-29T09:06:35;3.20;;;0.70;;
16153;SDS011;8182;55.648;13.208;2022-09-29T09:09:15;1.57;;;0.60;;
16153;SDS011;8182;55.648;13.208;2022-09-29T09:18:09;0.83;;;0.80;;
16153;SDS011;8182;55.648;13.208;2022-09-29T09:20:51;0.90;;;0.70;;
16153;SDS011;8182;55.648;13.208;2022-09-29T09:23:22;0.63;;;0.63;;
16153;SDS011;8182;55.648;13.208;2022-09-29T09:25:54;0.50;;;0.50;;
16153;SDS011;8182;55.648;13.208;2022-09-29T09:28:28;2.80;;;0.70;;
16153;SDS011;8182;55.648;13.208;2022-09-29T09:30:59;3.00;;;0.80;;
16153;SDS011;8182;55.648;13.208;2022-09-29T09:33:30;2.03;;;0.70;;
16153;SDS011;8182;55.648;13.208;2022-09-29T09:36:07;1.57;;;0.70;;
16153;SDS011;8182;55.648;13.208;2022-09-29T09:38:43;1.10;;;0.87;;
16153;SDS011;8182;55.648;13.208;2022-09-29T09:41:14;1.67;;;0.90;;
16153;SDS011;8182;55.648;13.208;2022-09-29T09:43:44;1.00;;;0.87;;
16153;SDS011;8182;55.648;13.208;2022-09-29T09:46:17;1.33;;;0.70;;
16153;SDS011;8182;55.648;13.208;2022-09-29T09:48:51;0.70;;;0.70;;
16153;SDS011;8182;55.648;13.208;2022-09-29T09:51:34;1.73;;;0.93;;
16153;SDS011;8182;55.648;13.208;2022-09-29T09:54:09;2.87;;;1.30;;
16153;SDS011;8182;55.648;13.208;2022-09-29T09:56:46;2.13;;;0.80;;
16153;SDS011;8182;55.648;13.208;2022-09-29T09:59:41;1.33;;;0.80;;
16153;SDS011;8182;55.648;13.208;2022-09-29T10:02:19;0.80;;;0.60;;
16153;SDS011;8182;55.648;13.208;2022-09-29T10:04:48;1.77;;;0.90;;
16153;SDS011;8182;55.648;13.208;2022-09-29T10:07:19;0.90;;;0.60;;
16153;SDS011;8182;55.648;13.208;2022-09-29T10:09:48;1.00;;;0.60;;
16153;SDS011;8182;55.648;13.208;2022-09-29T10:12:16;1.10;;;0.60;;
16153;SDS011;8182;55.648;13.208;2022-09-29T10:14:47;0.60;;;0.50;;
16153;SDS011;8182;55.648;13.208;2022-09-29T10:17:18;0.60;;;0.60;;
16153;SDS011;8182;55.648;13.208;2022-09-29T10:19:53;1.17;;;0.60;;
16153;SDS011;8182;55.648;13.208;2022-09-29T10:22:24;0.87;;;0.60;;
16153;SDS011;8182;55.648;13.208;2022-09-29T10:24:53;0.50;;;0.50;;
16153;SDS011;8182;55.648;13.208;2022-09-29T10:27:31;0.87;;;0.63;;
16153;SDS011;8182;55.648;13.208;2022-09-29T10:29:59;0.93;;;0.60;;
16153;SDS011;8182;55.648;13.208;2022-09-29T10:32:28;0.70;;;0.47;;
16153;SDS011;8182;55.648;13.208;2022-09-29T10:35:05;0.77;;;0.40;;
16153;SDS011;8182;55.648;13.208;2022-09-29T10:37:45;1.07;;;0.60;;
16153;SDS011;8182;55.648;13.208;2022-09-29T10:40:15;0.73;;;0.60;;
16153;SDS011;8182;55.648;13.208;2022-09-29T10:42:45;1.13;;;0.47;;
16153;SDS011;8182;55.648;13.208;2022-09-29T10:45:15;0.83;;;0.50;;
16153;SDS011;8182;55.648;13.208;2022-09-29T10:47:45;2.07;;;0.80;;
16153;SDS011;8182;55.648;13.208;2022-09-29T10:50:15;0.97;;;0.70;;
16153;SDS011;8182;55.648;13.208;2022-09-29T10:52:48;1.23;;;0.60;;
16153;SDS011;8182;55.648;13.208;2022-09-29T10:55:18;0.53;;;0.50;;
16153;SDS011;8182;55.648;13.208;2022-09-29T10:57:48;0.50;;;0.50;;
16153;SDS011;8182;55.648;13.208;2022-09-29T11:00:23;0.60;;;0.50;;
16153;SDS011;8182;55.648;13.208;2022-09-29T11:02:53;0.77;;;0.40;;
16153;SDS011;8182;55.648;13.208;2022-09-29T11:05:29;0.30;;;0.30;;
16153;SDS011;8182;55.648;13.208;2022-09-29T11:07:58;0.87;;;0.40;;
16153;SDS011;8182;55.648;13.208;2022-09-29T11:10:27;0.77;;;0.43;;
16153;SDS011;8182;55.648;13.208;2022-09-29T11:12:56;0.50;;;0.50;;
16153;SDS011;8182;55.648;13.208;2022-09-29T11:15:26;3.20;;;0.40;;
16153;SDS011;8182;55.648;13.208;2022-09-29T11:17:55;0.50;;;0.40;;
16153;SDS011;8182;55.648;13.208;2022-09-29T11:20:24;0.70;;;0.40;;
16153;SDS011;8182;55.648;13.208;2022-09-29T11:26:14;0.77;;;0.40;;
16153;SDS011;8182;55.648;13.208;2022-09-29T11:28:50;0.40;;;0.40;;
16153;SDS011;8182;55.648;13.208;2022-09-29T11:31:31;0.50;;;0.37;;
16153;SDS011;8182;55.648;13.208;2022-09-29T11:34:11;0.90;;;0.50;;
16153;SDS011;8182;55.648;13.208;2022-09-29T11:36:55;0.73;;;0.50;;
16153;SDS011;8182;55.648;13.208;2022-09-29T11:39:35;2.00;;;0.73;;
16153;SDS011;8182;55.648;13.208;2022-09-29T11:42:21;1.30;;;0.50;;
16153;SDS011;8182;55.648;13.208;2022-09-29T11:45:07;0.50;;;0.40;;
16153;SDS011;8182;55.648;13.208;2022-09-29T11:47:56;0.70;;;0.60;;
16153;SDS011;8182;55.648;13.208;2022-09-29T11:50:42;1.90;;;0.47;;
16153;SDS011;8182;55.648;13.208;2022-09-29T11:53:25;1.67;;;0.50;;
16153;SDS011;8182;55.648;13.208;2022-09-29T11:56:19;0.97;;;0.60;;
16153;SDS011;8182;55.648;13.208;2022-09-29T11:59:08;0.70;;;0.40;;
16153;SDS011;8182;55.648;13.208;2022-09-29T12:01:53;1.17;;;0.50;;
16153;SDS011;8182;55.648;13.208;2022-09-29T12:04:37;1.20;;;0.50;;
16153;SDS011;8182;55.648;13.208;2022-09-29T12:07:17;1.07;;;0.60;;
16153;SDS011;8182;55.648;13.208;2022-09-29T12:12:54;0.57;;;0.50;;
16153;SDS011;8182;55.648;13.208;2022-09-29T12:15:31;0.87;;;0.47;;
16153;SDS011;8182;55.648;13.208;2022-09-29T12:18:10;0.77;;;0.60;;
16153;SDS011;8182;55.648;13.208;2022-09-29T12:20:42;0.93;;;0.80;;
16153;SDS011;8182;55.648;13.208;2022-09-29T12:23:12;1.07;;;0.80;;
16153;SDS011;8182;55.648;13.208;2022-09-29T12:25:44;0.93;;;0.50;;
16153;SDS011;8182;55.648;13.208;2022-09-29T12:28:21;0.53;;;0.50;;
16153;SDS011;8182;55.648;13.208;2022-09-29T12:30:56;1.50;;;0.60;;
16153;SDS011;8182;55.648;13.208;2022-09-29T12:33:28;0.73;;;0.43;;
16153;SDS011;8182;55.648;13.208;2022-09-29T12:36:02;1.53;;;0.40;;
16153;SDS011;8182;55.648;13.208;2022-09-29T12:38:59;0.50;;;0.50;;
16153;SDS011;8182;55.648;13.208;2022-09-29T12:41:32;1.27;;;0.60;;
16153;SDS011;8182;55.648;13.208;2022-09-29T12:44:06;1.37;;;0.60;;
16153;SDS011;8182;55.648;13.208;2022-09-29T12:46:40;0.60;;;0.60;;
16153;SDS011;8182;55.648;13.208;2022-09-29T12:49:16;0.97;;;0.60;;
16153;SDS011;8182;55.648;13.208;2022-09-29T12:51:47;0.70;;;0.50;;
16153;SDS011;8182;55.648;13.208;2022-09-29T12:54:16;1.20;;;0.83;;
16153;SDS011;8182;55.648;13.208;2022-09-29T12:56:49;1.50;;;0.50;;
16153;SDS011;8182;55.648;13.208;2022-09-29T12:59:32;1.10;;;0.53;;
16153;SDS011;8182;55.648;13.208;2022-09-29T13:02:04;2.77;;;0.60;;
16153;SDS011;8182;55.648;13.208;2022-09-29T13:04:52;1.20;;;0.50;;
16153;SDS011;8182;55.648;13.208;2022-09-29T13:07:54;1.67;;;0.60;;
16153;SDS011;8182;55.648;13.208;2022-09-29T13:10:41;0.40;;;0.40;;
16153;SDS011;8182;55.648;13.208;2022-09-29T13:16:27;1.20;;;0.67;;
16153;SDS011;8182;55.648;13.208;2022-09-29T13:19:12;1.10;;;0.60;;
16153;SDS011;8182;55.648;13.208;2022-09-29T13:22:15;1.50;;;0.80;;
16153;SDS011;8182;55.648;13.208;2022-09-29T13:24:56;1.00;;;0.60;;
16153;SDS011;8182;55.648;13.208;2022-09-29T13:27:30;1.47;;;0.60;;
16153;SDS011;8182;55.648;13.208;2022-09-29T13:30:03;0.70;;;0.70;;
16153;SDS011;8182;55.648;13.208;2022-09-29T13:32:41;1.30;;;0.73;;
16153;SDS011;8182;55.648;13.208;2022-09-29T13:35:12;1.10;;;0.70;;
16153;SDS011;8182;55.648;13.208;2022-09-29T13:37:44;1.27;;;0.60;;
16153;SDS011;8182;55.648;13.208;2022-09-29T13:40:15;1.60;;;0.90;;
16153;SDS011;8182;55.648;13.208;2022-09-29T13:42:46;0.70;;;0.60;;
16153;SDS011;8182;55.648;13.208;2022-09-29T13:45:15;1.17;;;0.77;;
16153;SDS011;8182;55.648;13.208;2022-09-29T13:54:23;0.73;;;0.70;;
16153;SDS011;8182;55.648;13.208;2022-09-29T14:03:00;1.20;;;0.90;;
16153;SDS011;8182;55.648;13.208;2022-09-29T14:05:46;1.73;;;0.70;;
16153;SDS011;8182;55.648;13.208;2022-09-29T14:08:20;1.77;;;0.63;;
16153;SDS011;8182;55.648;13.208;2022-09-29T14:10:52;2.40;;;0.73;;
16153;SDS011;8182;55.648;13.208;2022-09-29T14:13:26;2.13;;;0.70;;
16153;SDS011;8182;55.648;13.208;2022-09-29T14:16:04;2.27;;;0.80;;
16153;SDS011;8182;55.648;13.208;2022-09-29T14:18:53;0.63;;;0.60;;
16153;SDS011;8182;55.648;13.208;2022-09-29T14:21:48;0.60;;;0.50;;
16153;SDS011;8182;55.648;13.208;2022-09-29T14:30:12;1.00;;;0.60;;
16153;SDS011;8182;55.648;13.208;2022-09-29T14:32:43;1.07;;;0.80;;
16153;SDS011;8182;55.648;13.208;2022-09-29T14:35:18;1.13;;;0.77;;
16153;SDS011;8182;55.648;13.208;2022-09-29T14:37:57;0.70;;;0.70;;
16153;SDS011;8182;55.648;13.208;2022-09-29T14:40:30;1.53;;;0.80;;
16153;SDS011;8182;55.648;13.208;2022-09-29T14:43:04;0.80;;;0.80;;
16153;SDS011;8182;55.648;13.208;2022-09-29T14:45:37;2.77;;;0.80;;
16153;SDS011;8182;55.648;13.208;2022-09-29T14:48:35;1.07;;;0.60;;
16153;SDS011;8182;55.648;13.208;2022-09-29T14:51:26;0.87;;;0.80;;
16153;SDS011;8182;55.648;13.208;2022-09-29T14:54:27;1.33;;;0.80;;
16153;SDS011;8182;55.648;13.208;2022-09-29T14:57:10;2.40;;;0.90;;
16153;SDS011;8182;55.648;13.208;2022-09-29T15:00:02;1.00;;;0.70;;
16153;SDS011;8182;55.648;13.208;2022-09-29T15:02:34;1.93;;;1.30;;
16153;SDS011;8182;55.648;13.208;2022-09-29T15:05:13;1.80;;;0.83;;
16153;SDS011;8182;55.648;13.208;2022-09-29T15:07:49;2.63;;;0.73;;
16153;SDS011;8182;55.648;13.208;2022-09-29T15:10:22;1.40;;;0.80;;
16153;SDS011;8182;55.648;13.208;2022-09-29T15:12:51;1.97;;;0.73;;
16153;SDS011;8182;55.648;13.208;2022-09-29T15:15:31;2.03;;;1.00;;
16153;SDS011;8182;55.648;13.208;2022-09-29T15:18:07;0.90;;;0.77;;
16153;SDS011;8182;55.648;13.208;2022-09-29T15:20:51;1.30;;;0.80;;
16153;SDS011;8182;55.648;13.208;2022-09-29T15:23:30;1.53;;;0.67;;
16153;SDS011;8182;55.648;13.208;2022-09-29T15:26:08;1.37;;;1.00;;
16153;SDS011;8182;55.648;13.208;2022-09-29T15:28:39;1.30;;;1.10;;
16153;SDS011;8182;55.648;13.208;2022-09-29T15:31:08;1.93;;;1.10;;
16153;SDS011;8182;55.648;13.208;2022-09-29T15:33:38;2.40;;;1.07;;
16153;SDS011;8182;55.648;13.208;2022-09-29T15:36:07;1.33;;;1.10;;
16153;SDS011;8182;55.648;13.208;2022-09-29T15:38:43;1.30;;;1.07;;
16153;SDS011;8182;55.648;13.208;2022-09-29T15:41:15;2.47;;;1.80;;
16153;SDS011;8182;55.648;13.208;2022-09-29T15:43:50;1.70;;;1.40;;
16153;SDS011;8182;55.648;13.208;2022-09-29T15:46:20;1.90;;;1.23;;
16153;SDS011;8182;55.648;13.208;2022-09-29T15:49:10;1.63;;;1.20;;
16153;SDS011;8182;55.648;13.208;2022-09-29T15:51:42;1.67;;;1.30;;
16153;SDS011;8182;55.648;13.208;2022-09-29T15:54:19;2.83;;;1.50;;